createdAt,value
2023-04-01T00:01:35.202Z,2.97
2023-04-01T00:04:03.286Z,2.63
2023-04-01T00:06:30.754Z,2.77
2023-04-01T00:08:58.075Z,2.00
2023-04-01T00:11:25.506Z,1.90
2023-04-01T00:13:52.673Z,1.43
2023-04-01T00:16:21.828Z,2.33
2023-04-01T00:18:50.516Z,1.03
2023-04-01T00:21:18.169Z,1.63
2023-04-01T00:23:45.357Z,1.00
2023-04-01T00:26:13.239Z,1.00
2023-04-01T00:28:41.186Z,1.20
2023-04-01T00:31:09.438Z,1.30
2023-04-01T00:33:36.849Z,1.87
2023-04-01T00:36:07.985Z,1.93
2023-04-01T00:38:35.631Z,1.10
2023-04-01T00:41:02.948Z,1.60
2023-04-01T00:43:30.172Z,2.50
2023-04-01T00:45:57.706Z,2.47
2023-04-01T00:48:26.512Z,2.43
2023-04-01T00:50:56.099Z,3.43
2023-04-01T00:53:23.674Z,4.40
2023-04-01T00:55:53.817Z,3.87
2023-04-01T00:58:22.371Z,3.87
2023-04-01T01:00:51.657Z,5.07
2023-04-01T01:03:18.957Z,4.97
2023-04-01T01:05:55.444Z,4.20
2023-04-01T01:08:33.777Z,2.87
2023-04-01T01:11:01.355Z,2.77
2023-04-01T01:13:36.027Z,2.50
2023-04-01T01:16:06.723Z,2.50
2023-04-01T01:18:42.852Z,1.80
2023-04-01T01:21:25.401Z,1.87
2023-04-01T03:36:48.705Z,1.10
2023-04-01T03:39:25.389Z,1.90
2023-04-01T03:41:57.700Z,1.53
2023-04-01T03:44:29.070Z,1.47
2023-04-01T03:47:01.248Z,1.40
2023-04-01T03:49:37.925Z,1.43
2023-04-01T03:52:15.790Z,1.33
2023-04-01T03:54:47.564Z,1.50
2023-04-01T03:57:21.909Z,2.77
2023-04-01T03:59:53.290Z,1.50
2023-04-01T04:02:24.831Z,1.63
2023-04-01T04:04:56.756Z,1.47
2023-04-01T04:07:29.570Z,1.40
2023-04-01T04:10:01.166Z,1.40
2023-04-01T04:12:32.836Z,1.10
2023-04-01T04:15:08.002Z,1.20
2023-04-01T04:17:38.935Z,1.47
2023-04-01T04:20:11.073Z,1.43
2023-04-01T04:22:38.630Z,1.37
2023-04-01T04:25:06.177Z,1.20
2023-04-01T04:27:35.766Z,1.30
2023-04-01T04:30:10.717Z,1.40
2023-04-01T04:32:38.377Z,1.70
2023-04-01T04:35:07.398Z,1.80
2023-04-01T04:37:34.600Z,1.30
2023-04-01T04:40:06.378Z,1.60
2023-04-01T04:42:33.524Z,2.13
2023-04-01T04:45:00.812Z,2.20
2023-04-01T04:47:28.036Z,2.07
2023-04-01T04:49:55.334Z,2.67
2023-04-01T04:52:22.486Z,2.50
2023-04-01T04:54:49.663Z,2.67
2023-04-01T04:57:16.798Z,2.37
2023-04-01T04:59:44.006Z,2.20
2023-04-01T05:02:11.260Z,2.73
2023-04-01T05:04:38.474Z,2.07
2023-04-01T05:07:05.652Z,1.93
2023-04-01T05:09:33.116Z,2.00
2023-04-01T05:12:00.416Z,1.97
2023-04-01T05:14:27.517Z,2.43
2023-04-01T05:16:55.540Z,2.50
2023-04-01T05:19:22.962Z,2.50
2023-04-01T05:21:50.170Z,2.77
2023-04-01T05:24:17.495Z,3.33
2023-04-01T05:26:44.632Z,2.90
2023-04-01T05:29:12.453Z,3.00
2023-04-01T05:31:39.629Z,4.43
2023-04-01T05:34:06.794Z,3.90
2023-04-01T05:36:36.082Z,4.30
2023-04-01T05:39:07.252Z,4.90
2023-04-01T05:41:36.394Z,4.23
2023-04-01T05:44:03.540Z,4.80
2023-04-01T05:46:30.797Z,5.77
2023-04-01T05:48:57.994Z,4.43
2023-04-01T05:51:25.422Z,4.10
2023-04-01T05:53:52.654Z,4.67
2023-04-01T05:56:19.856Z,5.00
2023-04-01T05:58:48.779Z,4.70
2023-04-01T06:01:16.634Z,4.50
2023-04-01T06:03:44.031Z,5.30
2023-04-01T06:06:20.464Z,5.20
2023-04-01T06:08:47.659Z,5.17
2023-04-01T06:11:26.447Z,5.60
2023-04-01T06:14:01.726Z,5.40
2023-04-01T06:16:31.707Z,6.37
2023-04-01T06:19:12.177Z,6.13
2023-04-01T06:21:52.488Z,5.83
2023-04-01T06:24:31.829Z,5.50
2023-04-01T06:26:58.872Z,5.87
2023-04-01T06:29:29.175Z,5.43
2023-04-01T06:32:08.009Z,4.03
2023-04-01T06:34:42.166Z,4.30
2023-04-01T06:37:15.432Z,4.80
2023-04-01T06:39:42.593Z,4.97
2023-04-01T06:42:12.509Z,5.20
2023-04-01T06:45:01.000Z,5.40
2023-04-01T06:47:30.481Z,5.13
2023-04-01T06:50:03.173Z,4.90
2023-04-01T06:52:37.852Z,4.80
2023-04-01T06:55:26.871Z,5.37
2023-04-01T06:57:56.506Z,4.27
2023-04-01T07:00:42.304Z,4.63
2023-04-01T07:03:37.411Z,3.70
2023-04-01T07:06:10.309Z,3.30
2023-04-01T07:08:39.627Z,4.33
2023-04-01T07:11:07.972Z,4.87
2023-04-01T07:13:41.925Z,4.60
2023-04-01T07:16:09.090Z,3.97
2023-04-01T07:18:39.258Z,3.80
2023-04-01T07:21:06.624Z,3.47
2023-04-01T07:23:52.781Z,4.30
2023-04-01T07:26:24.028Z,3.70
2023-04-01T07:28:57.699Z,4.33
2023-04-01T07:31:31.575Z,4.37
2023-04-01T07:34:02.510Z,3.53
2023-04-01T07:36:32.723Z,3.87
2023-04-01T07:38:59.930Z,4.30
2023-04-01T07:41:39.588Z,4.43
2023-04-01T07:44:28.196Z,4.60
2023-04-01T07:47:07.718Z,4.33
2023-04-01T07:49:53.366Z,5.43
2023-04-01T07:52:40.868Z,4.83
2023-04-01T07:55:08.054Z,5.60
2023-04-01T07:57:55.872Z,5.03
2023-04-01T08:00:23.032Z,5.10
2023-04-01T08:02:59.233Z,5.07
2023-04-01T08:05:31.749Z,5.40
2023-04-01T08:08:17.781Z,4.97
2023-04-01T08:10:59.525Z,5.57
2023-04-01T08:13:39.755Z,6.07
2023-04-01T08:16:19.094Z,4.90
2023-04-01T08:19:03.502Z,5.53
2023-04-01T08:21:34.493Z,5.30
2023-04-01T08:24:07.315Z,5.00
2023-04-01T08:26:43.722Z,5.10
2023-04-01T08:29:16.085Z,5.70
2023-04-01T08:31:43.398Z,4.67
2023-04-01T08:34:16.869Z,4.67
2023-04-01T08:36:47.534Z,3.93
2023-04-01T08:39:18.306Z,5.33
2023-04-01T08:42:04.648Z,5.20
2023-04-01T08:45:07.349Z,5.50
2023-04-01T08:47:46.253Z,5.50
2023-04-01T08:50:22.559Z,4.90
2023-04-01T08:52:56.716Z,4.63
2023-04-01T08:55:37.963Z,5.33
2023-04-01T08:58:07.549Z,5.07
2023-04-01T09:00:49.727Z,5.43
2023-04-01T09:03:38.772Z,5.17
2023-04-01T09:06:31.941Z,6.50
2023-04-01T09:08:59.027Z,5.30
2023-04-01T09:11:35.501Z,6.07
2023-04-01T09:14:08.940Z,5.93
2023-04-01T09:16:48.300Z,7.47
2023-04-01T09:19:18.250Z,6.83
2023-04-01T09:21:45.802Z,8.67
2023-04-01T09:24:22.688Z,8.07
2023-04-01T09:26:50.311Z,9.30
2023-04-01T09:29:26.315Z,8.50
2023-04-01T09:32:06.902Z,9.50
2023-04-01T09:34:54.283Z,11.57
2023-04-01T09:37:33.764Z,12.20
2023-04-01T09:40:38.426Z,10.80
2023-04-01T09:43:24.422Z,10.07
2023-04-01T09:45:58.505Z,10.73
2023-04-01T09:48:40.972Z,11.50
2023-04-01T09:51:23.167Z,11.90
2023-04-01T09:53:56.499Z,13.43
2023-04-01T09:56:49.051Z,10.97
2023-04-01T09:59:18.974Z,10.63
2023-04-01T10:01:56.689Z,13.17
2023-04-01T10:04:26.839Z,11.83
2023-04-01T10:07:12.502Z,13.50
2023-04-01T10:09:39.596Z,11.80
2023-04-01T10:12:21.953Z,13.27
2023-04-01T10:14:58.242Z,14.53
2023-04-01T10:17:37.611Z,14.77
2023-04-01T10:20:14.249Z,15.47
2023-04-01T10:23:00.245Z,11.60
2023-04-01T10:25:36.535Z,11.83
2023-04-01T10:28:04.833Z,13.20
2023-04-01T10:30:35.623Z,12.67
2023-04-01T10:33:05.990Z,11.70
2023-04-01T10:35:53.495Z,12.67
2023-04-01T10:38:20.647Z,12.97
2023-04-01T10:41:06.623Z,11.43
2023-04-01T10:43:33.845Z,14.03
2023-04-01T10:46:06.826Z,12.37
2023-04-01T10:48:51.847Z,11.53
2023-04-01T10:51:28.396Z,10.53
2023-04-01T10:54:19.584Z,12.10
2023-04-01T10:57:07.160Z,10.77
2023-04-01T10:59:37.903Z,10.57
2023-04-01T11:02:25.379Z,12.47
2023-04-01T11:05:08.413Z,11.30
2023-04-01T11:07:41.876Z,12.73
2023-04-01T11:10:12.169Z,12.40
2023-04-01T11:12:58.618Z,10.33
2023-04-01T11:15:44.509Z,11.67
2023-04-01T11:18:39.474Z,12.93
2023-04-01T11:21:15.580Z,12.90
2023-04-01T11:24:04.575Z,12.40
2023-04-01T11:26:33.740Z,13.20
2023-04-01T11:32:49.212Z,12.67
2023-04-01T11:36:06.332Z,13.87
2023-04-01T11:39:38.596Z,13.17
2023-04-01T11:42:14.348Z,12.50
2023-04-01T11:44:51.430Z,14.13
2023-04-01T11:47:58.855Z,12.10
2023-04-01T11:50:51.729Z,13.83
2023-04-01T11:53:24.318Z,13.50
2023-04-01T11:56:10.315Z,13.37
2023-04-01T11:58:37.488Z,14.33
2023-04-01T12:01:10.743Z,13.33
2023-04-01T12:03:48.930Z,12.93
2023-04-01T12:06:31.325Z,13.00
2023-04-01T12:09:16.817Z,12.40
2023-04-01T12:11:44.042Z,12.30
2023-04-01T12:14:26.255Z,13.10
2023-04-01T12:16:57.544Z,12.00
2023-04-01T12:19:48.146Z,11.27
2023-04-01T12:22:15.293Z,10.03
2023-04-01T12:24:50.148Z,10.13
2023-04-01T12:27:40.984Z,10.17
2023-04-01T12:30:08.318Z,7.60
2023-04-01T12:32:50.938Z,9.47
2023-04-01T12:35:23.568Z,9.03
2023-04-01T12:38:06.477Z,9.63
2023-04-01T12:40:56.371Z,9.47
2023-04-01T12:43:33.164Z,8.53
2023-04-01T12:46:12.580Z,8.60
2023-04-01T12:48:49.436Z,9.03
2023-04-01T12:51:16.843Z,10.40
2023-04-01T12:53:57.367Z,10.47
2023-04-01T12:56:44.209Z,9.63
2023-04-01T12:59:27.712Z,12.57
2023-04-01T13:01:54.888Z,12.83
2023-04-01T13:04:22.173Z,8.20
2023-04-01T13:07:18.872Z,10.77
2023-04-01T13:10:06.106Z,9.67
2023-04-01T13:12:46.817Z,10.10
2023-04-01T13:15:40.532Z,11.17
2023-04-01T13:18:07.883Z,10.40
2023-04-01T13:20:53.771Z,9.40
2023-04-01T13:23:26.628Z,8.17
2023-04-01T13:26:06.905Z,9.13
2023-04-01T13:28:45.890Z,7.73
2023-04-01T13:31:27.657Z,8.93
2023-04-01T13:34:13.457Z,8.77
2023-04-01T13:37:05.793Z,9.37
2023-04-01T13:39:51.571Z,9.33
2023-04-01T13:42:25.880Z,9.67
2023-04-01T13:44:56.873Z,8.80
2023-04-01T13:47:24.036Z,9.20
2023-04-01T13:49:57.301Z,10.83
2023-04-01T13:52:36.413Z,10.63
2023-04-01T13:55:22.329Z,13.50
2023-04-01T13:57:49.490Z,13.20
2023-04-01T14:00:19.699Z,10.17
2023-04-01T14:02:49.985Z,10.23
2023-04-01T14:05:32.433Z,11.60
2023-04-01T14:08:30.671Z,10.13
2023-04-01T14:11:03.068Z,9.47
2023-04-01T14:13:39.313Z,7.97
2023-04-01T14:16:12.922Z,8.80
2023-04-01T14:19:00.400Z,9.47
2023-04-01T14:21:40.876Z,9.37
2023-04-01T14:24:11.348Z,8.43
2023-04-01T14:26:53.712Z,8.00
2023-04-01T14:29:27.436Z,9.10
2023-04-01T14:32:06.504Z,7.87
2023-04-01T14:34:46.204Z,9.30
2023-04-01T14:37:32.239Z,8.50
2023-04-01T14:40:05.641Z,7.87
2023-04-01T14:42:38.951Z,7.90
2023-04-01T14:45:21.442Z,8.53
2023-04-01T14:48:07.670Z,7.83
2023-04-01T14:50:55.082Z,7.67
2023-04-01T14:53:25.544Z,7.87
2023-04-01T14:55:56.750Z,8.37
2023-04-01T14:58:28.835Z,7.13
2023-04-01T15:00:59.079Z,6.70
2023-04-01T15:03:29.328Z,7.33
2023-04-01T15:06:26.759Z,7.70
2023-04-01T15:09:00.125Z,7.70
2023-04-01T15:11:30.476Z,8.17
2023-04-01T15:14:08.523Z,6.70
2023-04-01T15:16:47.507Z,6.63
2023-04-01T15:19:20.502Z,6.03
2023-04-01T15:22:02.783Z,6.40
2023-04-01T15:24:42.296Z,7.13
2023-04-01T15:27:28.437Z,6.83
2023-04-01T15:30:05.951Z,6.90
2023-04-01T15:32:42.181Z,7.10
2023-04-01T15:35:28.068Z,7.30
2023-04-01T15:38:12.125Z,7.03
2023-04-01T15:40:48.612Z,7.57
2023-04-01T15:43:32.553Z,7.83
2023-04-01T15:46:17.989Z,7.43
2023-04-01T15:48:57.734Z,6.50
2023-04-01T15:51:31.011Z,7.27
2023-04-01T15:54:05.476Z,6.27
2023-04-01T15:56:45.380Z,7.10
2023-04-01T15:59:29.323Z,6.47
2023-04-01T16:02:01.858Z,6.97
2023-04-01T16:04:29.150Z,6.73
2023-04-01T16:06:56.602Z,7.37
2023-04-01T16:10:04.669Z,8.07
2023-04-01T16:12:48.339Z,6.93
2023-04-01T16:15:35.986Z,6.97
2023-04-01T16:18:23.412Z,6.93
2023-04-01T16:20:59.353Z,6.67
2023-04-01T16:23:38.692Z,6.77
2023-04-01T16:26:21.253Z,5.67
2023-04-01T16:29:00.852Z,5.97
2023-04-01T16:31:36.062Z,7.30
2023-04-01T16:34:06.851Z,6.73
2023-04-01T16:36:47.434Z,6.57
2023-04-01T16:39:17.703Z,7.47
2023-04-01T16:42:03.682Z,8.77
2023-04-01T16:44:31.150Z,7.93
2023-04-01T16:47:00.974Z,8.97
2023-04-01T16:49:38.458Z,8.53
2023-04-01T16:52:15.426Z,8.67
2023-04-01T16:54:54.840Z,8.47
2023-04-01T16:57:29.166Z,8.47
2023-04-01T17:00:03.085Z,9.30
2023-04-01T17:02:33.393Z,9.90
2023-04-01T17:05:02.945Z,8.70
2023-04-01T17:07:30.084Z,10.33
2023-04-01T17:10:03.062Z,9.87
2023-04-01T17:12:30.309Z,10.10
2023-04-01T17:15:00.325Z,9.80
2023-04-01T17:17:49.959Z,9.73
2023-04-01T17:20:26.220Z,10.90
2023-04-01T17:23:12.084Z,11.07
2023-04-01T17:25:54.503Z,10.57
2023-04-01T17:28:29.126Z,10.13
2023-04-01T17:31:05.676Z,12.10
2023-04-01T17:33:38.725Z,9.97
2023-04-01T17:36:08.999Z,10.77
2023-04-01T17:38:39.160Z,10.03
2023-04-01T17:41:25.020Z,10.33
2023-04-01T17:43:55.143Z,10.40
2023-04-01T17:46:25.089Z,10.13
2023-04-01T17:49:11.188Z,10.77
2023-04-01T17:51:56.363Z,11.70
2023-04-01T17:54:28.748Z,12.67
2023-04-01T17:57:28.347Z,11.33
2023-04-01T18:00:13.937Z,11.23
2023-04-01T18:02:45.556Z,11.87
2023-04-01T18:05:12.785Z,10.77
2023-04-01T18:08:00.132Z,12.90
2023-04-01T18:10:28.551Z,11.60
2023-04-01T18:13:13.917Z,11.63
2023-04-01T18:15:59.835Z,11.43
2023-04-01T18:18:46.059Z,11.70
2023-04-01T18:21:19.277Z,13.03
2023-04-01T18:23:59.161Z,11.80
2023-04-01T18:26:38.020Z,12.37
2023-04-01T18:29:23.590Z,12.53
2023-04-01T18:31:53.940Z,11.20
2023-04-01T18:34:33.236Z,13.17
2023-04-01T18:37:14.048Z,12.80
2023-04-01T18:39:43.460Z,12.43
2023-04-01T18:42:21.911Z,13.23
2023-04-01T18:44:54.121Z,13.47
2023-04-01T18:47:37.130Z,14.60
2023-04-01T18:50:04.573Z,13.77
2023-04-01T18:52:39.464Z,13.07
2023-04-01T18:55:08.598Z,12.97
2023-04-01T18:57:48.213Z,12.57
2023-04-01T19:00:27.592Z,10.73
2023-04-01T19:03:02.996Z,12.73
2023-04-01T19:05:39.052Z,14.73
2023-04-01T19:08:20.385Z,15.03
2023-04-01T19:10:57.396Z,16.33
2023-04-01T19:13:30.850Z,15.13
2023-04-01T19:16:01.484Z,14.77
2023-04-01T19:18:51.857Z,14.50
2023-04-01T19:21:31.464Z,13.27
2023-04-01T19:24:07.951Z,10.70
2023-04-01T19:26:38.187Z,11.13
2023-04-01T19:29:08.549Z,8.83
2023-04-01T19:31:41.399Z,8.37
2023-04-01T19:34:28.740Z,7.87
2023-04-01T19:37:47.328Z,6.03
2023-04-01T19:40:21.620Z,5.37
2023-04-01T19:42:59.624Z,5.40
2023-04-01T19:45:47.179Z,5.17
2023-04-01T19:48:39.448Z,5.30
2023-04-01T19:51:13.941Z,5.93
2023-04-01T19:53:52.408Z,5.17
2023-04-01T19:56:19.675Z,5.20
2023-04-01T19:58:55.877Z,4.43
2023-04-01T20:01:44.203Z,4.10
2023-04-01T20:04:25.318Z,4.23
2023-04-01T20:06:53.338Z,5.10
2023-04-01T20:09:27.356Z,4.67
2023-04-01T20:11:58.157Z,4.93
2023-04-01T20:14:29.138Z,4.47
2023-04-01T20:17:01.348Z,4.10
2023-04-01T20:19:30.280Z,5.20
2023-04-01T20:22:02.205Z,5.50
2023-04-01T20:24:55.982Z,5.73
2023-04-01T20:27:27.144Z,4.87
2023-04-01T20:30:09.652Z,5.00
2023-04-01T20:32:48.853Z,5.70
2023-04-01T20:35:16.519Z,5.40
2023-04-01T20:37:50.997Z,5.77
2023-04-01T20:40:25.383Z,6.67
2023-04-01T20:42:52.522Z,6.53
2023-04-01T20:45:22.736Z,7.83
2023-04-01T20:47:53.030Z,5.93
2023-04-01T20:50:39.138Z,5.90
2023-04-01T20:53:17.158Z,5.10
2023-04-01T20:55:56.629Z,4.43
2023-04-01T20:58:42.069Z,4.97
2023-04-01T21:01:15.364Z,4.43
2023-04-01T21:04:01.576Z,4.13
2023-04-01T21:06:43.876Z,4.27
2023-04-01T21:09:26.545Z,4.00
2023-04-01T21:11:54.075Z,4.43
2023-04-01T21:14:36.785Z,3.70
2023-04-01T21:17:15.354Z,4.33
2023-04-01T21:19:58.280Z,5.00
2023-04-01T21:22:36.974Z,3.73
2023-04-01T21:25:23.048Z,3.63
2023-04-01T21:28:09.046Z,4.57
2023-04-01T21:30:55.013Z,3.47
2023-04-01T21:33:29.312Z,5.50
2023-04-01T21:36:12.335Z,4.37
2023-04-01T21:38:45.988Z,3.43
2023-04-01T21:41:39.456Z,3.73
2023-04-01T21:44:23.531Z,3.80
2023-04-01T21:46:57.009Z,4.20
2023-04-01T21:49:33.521Z,3.73
2023-04-01T21:52:19.352Z,3.83
2023-04-01T21:54:52.580Z,4.10
2023-04-01T21:57:19.776Z,4.10
2023-04-01T22:00:06.993Z,4.67
2023-04-01T22:02:37.020Z,4.53
2023-04-01T22:05:10.564Z,6.27
2023-04-01T22:07:40.798Z,7.90
2023-04-01T22:10:17.034Z,9.10
2023-04-01T22:12:55.954Z,5.63
2023-04-01T22:15:52.342Z,6.13
2023-04-01T22:18:23.870Z,5.00
2023-04-01T22:20:51.015Z,5.13
2023-04-01T22:23:32.041Z,5.57
2023-04-01T22:26:05.229Z,5.53
2023-04-01T22:28:53.094Z,5.60
2023-04-01T22:31:42.598Z,5.23
2023-04-01T22:34:16.261Z,6.10
2023-04-01T22:36:59.996Z,6.37
2023-04-01T22:39:39.724Z,6.33
2023-04-01T22:42:18.938Z,6.90
2023-04-01T22:45:01.328Z,7.47
2023-04-01T22:47:28.621Z,6.13
2023-04-01T22:50:00.337Z,6.60
2023-04-01T22:52:37.789Z,7.80
2023-04-01T22:55:09.684Z,6.67
2023-04-01T22:57:52.139Z,6.60
2023-04-01T23:00:20.352Z,6.03
2023-04-01T23:02:50.488Z,6.63
2023-04-01T23:05:20.170Z,5.27
2023-04-01T23:08:09.188Z,4.53
2023-04-01T23:10:53.753Z,5.00
2023-04-01T23:13:24.595Z,5.03
2023-04-01T23:15:53.480Z,5.53
2023-04-01T23:18:35.624Z,5.60
2023-04-01T23:21:13.393Z,5.40
2023-04-01T23:23:52.435Z,7.30
2023-04-01T23:26:42.002Z,6.07
2023-04-01T23:29:15.073Z,6.57
2023-04-01T23:31:43.464Z,5.87
2023-04-01T23:34:13.815Z,6.27
2023-04-01T23:36:41.212Z,6.17
2023-04-01T23:39:16.776Z,5.80
2023-04-01T23:41:44.095Z,5.27
2023-04-01T23:44:13.151Z,6.33
2023-04-01T23:46:41.587Z,5.93
2023-04-01T23:49:13.940Z,7.63
2023-04-01T23:51:48.368Z,5.30
2023-04-01T23:54:27.970Z,4.93
2023-04-01T23:56:57.391Z,5.30
2023-04-01T23:59:36.257Z,5.03
